Portada
METAR-TAF:

METAR-TAF

Aeropuertos :

Brive-la-Gaillarde, Francia

Souillac

latitud: 45-02-28N, longitud: 001-28-59E, altitud: 311 m

Observación

El informe se hizo hace 40 minutos, a las 04:00 UTC
Viento 4 kt del norte-noroeste
Temperatura 15°C
Humedad 82%
Presión 1014 hPa
Visibilidad 10 km o más
sin nubes por debajo de 1500 m y sin presencia de cumulonimbus.

METAR: LFSL 210400Z AUTO 33004KT CAVOK 15/12 Q1014 NOSIG

Hora: 06:40 (04:40 UTC)

Pronóstico

El informe se hizo hace 2 horas y 40 minutos, a las 02:00 UTC
Pronóstico válido del 21 a las 03 UTC al 21 a las 12 UTC
Viento 3 kt con dirección variable
Visibilidad 10 km o más
sin nubes por debajo de 1500 m y sin presencia de cumulonimbus.
Temporalmente
del 21 a las 08 UTC al 21 a las 12 UTC
Cielo nuboso a una altura de 2500 ft

TAF: LFSL 210200Z 2103/2112 VRB03KT CAVOK TEMPO 2108/2112 BKN025

Observaciones y pronósticos meteorológicos de más de 4000 aeropuertos (mensajes METAR y TAF).

Los puntos amarillos y rojos representan las estaciones disponibles.

Ponga el ratón en el punto deseado para ver el nombre de la estación.

Haga clic para ver las observaciones y los pronósticos meteorológicos.

Para cambiar el mapa : haga clic en los botones verdes con una cruz de color negro para hacer un zoom, en el botón verde con un guión para alejar o en las flechas verdes para mapas adyacentes.


METAR-TAF: